sensor_id;sensor_type;location;lat;lon;timestamp;pressure;altitude;pressure_sealevel;temperature;humidity
61805;BME280;47725;47.912;7.356;2022-08-01T00:00:43;99351.53;;;29.30;41.17
61805;BME280;47725;47.912;7.356;2022-08-01T00:04:43;99353.45;;;29.31;41.08
61805;BME280;47725;47.912;7.356;2022-08-01T00:08:43;99354.15;;;29.32;41.03
61805;BME280;47725;47.912;7.356;2022-08-01T00:12:43;99353.85;;;29.28;41.44
61805;BME280;47725;47.912;7.356;2022-08-01T00:16:43;99355.69;;;29.29;41.14
61805;BME280;47725;47.912;7.356;2022-08-01T00:20:43;99356.80;;;29.30;41.08
61805;BME280;47725;47.912;7.356;2022-08-01T00:24:43;99357.86;;;29.29;41.34
61805;BME280;47725;47.912;7.356;2022-08-01T00:28:43;99358.42;;;29.28;41.17
61805;BME280;47725;47.912;7.356;2022-08-01T00:32:43;99358.87;;;29.29;41.10
61805;BME280;47725;47.912;7.356;2022-08-01T00:36:43;99359.39;;;29.30;41.08
61805;BME280;47725;47.912;7.356;2022-08-01T00:40:43;99359.69;;;29.27;41.44
61805;BME280;47725;47.912;7.356;2022-08-01T00:44:43;99359.96;;;29.28;41.13
61805;BME280;47725;47.912;7.356;2022-08-01T00:48:43;99360.13;;;29.29;41.09
61805;BME280;47725;47.912;7.356;2022-08-01T00:52:43;99359.79;;;29.29;41.30
61805;BME280;47725;47.912;7.356;2022-08-01T00:56:43;99358.43;;;29.27;41.22
61805;BME280;47725;47.912;7.356;2022-08-01T01:00:43;99357.50;;;29.27;41.12
61805;BME280;47725;47.912;7.356;2022-08-01T01:04:43;99357.50;;;29.28;41.14
61805;BME280;47725;47.912;7.356;2022-08-01T01:08:45;99356.56;;;29.25;41.32
61805;BME280;47725;47.912;7.356;2022-08-01T01:16:43;99359.17;;;29.28;41.07
61805;BME280;47725;47.912;7.356;2022-08-01T01:20:44;99360.94;;;29.28;41.30
61805;BME280;47725;47.912;7.356;2022-08-01T01:25:02;99361.50;;;29.26;41.19
61805;BME280;47725;47.912;7.356;2022-08-01T01:32:43;99361.19;;;29.28;41.08
61805;BME280;47725;47.912;7.356;2022-08-01T01:36:43;99360.47;;;29.25;41.44
61805;BME280;47725;47.912;7.356;2022-08-01T01:40:43;99361.25;;;29.25;41.11
61805;BME280;47725;47.912;7.356;2022-08-01T01:44:43;99361.19;;;29.27;41.09
61805;BME280;47725;47.912;7.356;2022-08-01T01:48:43;99361.27;;;29.27;41.30
61805;BME280;47725;47.912;7.356;2022-08-01T01:52:43;99362.00;;;29.25;41.16
61805;BME280;47725;47.912;7.356;2022-08-01T01:56:43;99362.61;;;29.27;41.08
61805;BME280;47725;47.912;7.356;2022-08-01T02:00:43;99362.86;;;29.28;41.04
61805;BME280;47725;47.912;7.356;2022-08-01T02:04:44;99363.09;;;29.25;41.40
61805;BME280;47725;47.912;7.356;2022-08-01T02:08:43;99365.18;;;29.25;41.12
61805;BME280;47725;47.912;7.356;2022-08-01T02:12:43;99367.61;;;29.26;41.06
61805;BME280;47725;47.912;7.356;2022-08-01T02:16:45;99368.92;;;29.24;41.34
61805;BME280;47725;47.912;7.356;2022-08-01T02:20:43;99369.76;;;29.24;41.13
61805;BME280;47725;47.912;7.356;2022-08-01T02:24:44;99369.20;;;29.25;41.06
61805;BME280;47725;47.912;7.356;2022-08-01T02:28:44;99369.98;;;29.27;41.04
61805;BME280;47725;47.912;7.356;2022-08-01T02:32:44;99370.48;;;29.23;41.44
61805;BME280;47725;47.912;7.356;2022-08-01T02:36:43;99373.44;;;29.23;41.12
61805;BME280;47725;47.912;7.356;2022-08-01T02:40:43;99374.69;;;29.24;41.06
61805;BME280;47725;47.912;7.356;2022-08-01T02:44:43;99374.00;;;29.23;41.26
61805;BME280;47725;47.912;7.356;2022-08-01T02:48:43;99374.98;;;29.21;41.20
61805;BME280;47725;47.912;7.356;2022-08-01T02:52:43;99376.43;;;29.22;41.11
61805;BME280;47725;47.912;7.356;2022-08-01T02:56:43;99377.34;;;29.23;41.06
61805;BME280;47725;47.912;7.356;2022-08-01T03:00:43;99376.45;;;29.20;41.39
61805;BME280;47725;47.912;7.356;2022-08-01T03:04:43;99375.95;;;29.20;41.14
61805;BME280;47725;47.912;7.356;2022-08-01T03:08:43;99374.81;;;29.21;41.07
61805;BME280;47725;47.912;7.356;2022-08-01T03:12:43;99373.64;;;29.21;41.27
61805;BME280;47725;47.912;7.356;2022-08-01T03:16:43;99372.05;;;29.19;41.19
61805;BME280;47725;47.912;7.356;2022-08-01T03:20:43;99371.58;;;29.20;41.05
61805;BME280;47725;47.912;7.356;2022-08-01T03:24:43;99370.96;;;29.21;41.05
61805;BME280;47725;47.912;7.356;2022-08-01T03:28:43;99370.22;;;29.20;41.32
61805;BME280;47725;47.912;7.356;2022-08-01T03:32:43;99369.73;;;29.19;41.14
61805;BME280;47725;47.912;7.356;2022-08-01T03:40:52;99370.72;;;29.21;41.04
61805;BME280;47725;47.912;7.356;2022-08-01T03:44:44;99370.47;;;29.17;41.46
61805;BME280;47725;47.912;7.356;2022-08-01T03:48:43;99371.14;;;29.17;41.14
61805;BME280;47725;47.912;7.356;2022-08-01T03:52:43;99372.72;;;29.19;41.07
61805;BME280;47725;47.912;7.356;2022-08-01T03:56:43;99372.97;;;29.18;41.30
61805;BME280;47725;47.912;7.356;2022-08-01T04:00:43;99372.78;;;29.16;41.18
61805;BME280;47725;47.912;7.356;2022-08-01T04:04:43;99372.37;;;29.16;41.09
61805;BME280;47725;47.912;7.356;2022-08-01T04:08:43;99372.50;;;29.15;41.36
61805;BME280;47725;47.912;7.356;2022-08-01T04:12:43;99372.77;;;29.14;41.15
61805;BME280;47725;47.912;7.356;2022-08-01T04:16:43;99373.13;;;29.16;41.05
61805;BME280;47725;47.912;7.356;2022-08-01T04:20:43;99372.28;;;29.16;41.24
61805;BME280;47725;47.912;7.356;2022-08-01T04:24:44;99371.98;;;29.14;41.22
61805;BME280;47725;47.912;7.356;2022-08-01T04:28:43;99372.09;;;29.15;41.07
61805;BME280;47725;47.912;7.356;2022-08-01T04:32:43;99372.69;;;29.17;41.02
61805;BME280;47725;47.912;7.356;2022-08-01T04:36:42;99371.34;;;29.14;41.37
61805;BME280;47725;47.912;7.356;2022-08-01T04:40:42;99371.58;;;29.15;41.04
61805;BME280;47725;47.912;7.356;2022-08-01T04:44:42;99373.03;;;29.17;40.99
61805;BME280;47725;47.912;7.356;2022-08-01T04:48:42;99375.70;;;29.17;41.19
61805;BME280;47725;47.912;7.356;2022-08-01T04:52:42;99377.61;;;29.15;41.16
61805;BME280;47725;47.912;7.356;2022-08-01T04:56:42;99379.61;;;29.15;41.05
61805;BME280;47725;47.912;7.356;2022-08-01T05:00:42;99381.06;;;29.16;41.01
61805;BME280;47725;47.912;7.356;2022-08-01T05:04:43;99381.61;;;29.13;41.39
61805;BME280;47725;47.912;7.356;2022-08-01T05:08:42;99382.11;;;29.13;41.10
61805;BME280;47725;47.912;7.356;2022-08-01T05:12:42;99383.61;;;29.14;41.03
61805;BME280;47725;47.912;7.356;2022-08-01T05:16:42;99383.44;;;29.13;41.23
61805;BME280;47725;47.912;7.356;2022-08-01T05:20:42;99384.25;;;29.11;41.16
61805;BME280;47725;47.912;7.356;2022-08-01T05:24:42;99385.10;;;29.12;41.08
61805;BME280;47725;47.912;7.356;2022-08-01T05:28:42;99385.85;;;29.12;41.05
61805;BME280;47725;47.912;7.356;2022-08-01T05:32:42;99387.13;;;29.09;41.39
61805;BME280;47725;47.912;7.356;2022-08-01T05:36:43;99386.88;;;29.09;41.10
61805;BME280;47725;47.912;7.356;2022-08-01T05:40:42;99386.66;;;29.10;41.04
61805;BME280;47725;47.912;7.356;2022-08-01T05:44:42;99384.74;;;29.10;41.21
61805;BME280;47725;47.912;7.356;2022-08-01T05:48:42;99382.59;;;29.08;41.14
61805;BME280;47725;47.912;7.356;2022-08-01T05:52:42;99381.69;;;29.08;41.06
61805;BME280;47725;47.912;7.356;2022-08-01T05:56:42;99381.38;;;29.10;41.01
61805;BME280;47725;47.912;7.356;2022-08-01T06:00:42;99380.83;;;29.07;41.36
61805;BME280;47725;47.912;7.356;2022-08-01T06:04:42;99379.83;;;29.07;41.07
61805;BME280;47725;47.912;7.356;2022-08-01T06:08:42;99380.10;;;29.09;41.04
61805;BME280;47725;47.912;7.356;2022-08-01T06:12:42;99380.66;;;29.07;41.36
61805;BME280;47725;47.912;7.356;2022-08-01T06:16:42;99381.42;;;29.07;41.12
61805;BME280;47725;47.912;7.356;2022-08-01T06:20:42;99382.03;;;29.08;41.05
61805;BME280;47725;47.912;7.356;2022-08-01T06:24:42;99382.67;;;29.07;41.33
61805;BME280;47725;47.912;7.356;2022-08-01T06:28:42;99382.84;;;29.07;41.14
61805;BME280;47725;47.912;7.356;2022-08-01T06:32:42;99382.95;;;29.08;41.07
61805;BME280;47725;47.912;7.356;2022-08-01T06:36:42;99384.23;;;29.10;41.06
61805;BME280;47725;47.912;7.356;2022-08-01T06:40:42;99384.84;;;29.06;41.42
61805;BME280;47725;47.912;7.356;2022-08-01T06:44:42;99385.44;;;29.07;41.12
61805;BME280;47725;47.912;7.356;2022-08-01T06:48:42;99386.05;;;29.08;41.07
61805;BME280;47725;47.912;7.356;2022-08-01T06:52:42;99385.35;;;29.06;41.43
61805;BME280;47725;47.912;7.356;2022-08-01T06:56:42;99385.91;;;29.06;41.20
61805;BME280;47725;47.912;7.356;2022-08-01T07:00:42;99387.11;;;29.07;41.15
61805;BME280;47725;47.912;7.356;2022-08-01T07:04:42;99388.58;;;29.06;41.40
61805;BME280;47725;47.912;7.356;2022-08-01T07:08:42;99389.31;;;29.04;41.26
61805;BME280;47725;47.912;7.356;2022-08-01T07:12:42;99389.84;;;29.06;41.14
61805;BME280;47725;47.912;7.356;2022-08-01T07:16:42;99390.11;;;29.08;41.17
61805;BME280;47725;47.912;7.356;2022-08-01T07:20:42;99389.17;;;29.06;41.42
61805;BME280;47725;47.912;7.356;2022-08-01T07:24:42;99389.42;;;29.06;41.19
61805;BME280;47725;47.912;7.356;2022-08-01T07:28:42;99389.28;;;29.07;41.18
61805;BME280;47725;47.912;7.356;2022-08-01T07:32:42;99388.94;;;29.07;41.32
61805;BME280;47725;47.912;7.356;2022-08-01T07:36:42;99387.16;;;29.05;41.37
61805;BME280;47725;47.912;7.356;2022-08-01T07:40:43;99385.66;;;29.05;41.21
61805;BME280;47725;47.912;7.356;2022-08-01T07:44:42;99383.51;;;29.07;41.18
61805;BME280;47725;47.912;7.356;2022-08-01T07:48:42;99381.89;;;29.05;41.48
61805;BME280;47725;47.912;7.356;2022-08-01T07:52:42;99380.52;;;29.05;41.27
61805;BME280;47725;47.912;7.356;2022-08-01T07:56:42;99379.38;;;29.06;41.23
61805;BME280;47725;47.912;7.356;2022-08-01T08:00:43;99377.81;;;29.07;41.08
61805;BME280;47725;47.912;7.356;2022-08-01T08:04:42;99376.12;;;29.06;41.41
61805;BME280;47725;47.912;7.356;2022-08-01T08:08:42;99374.39;;;29.07;41.18
61805;BME280;47725;47.912;7.356;2022-08-01T08:12:42;99372.91;;;29.08;41.19
61805;BME280;47725;47.912;7.356;2022-08-01T08:16:42;99370.87;;;29.08;41.38
61805;BME280;47725;47.912;7.356;2022-08-01T08:20:42;99370.26;;;29.05;41.36
61805;BME280;47725;47.912;7.356;2022-08-01T08:24:43;99368.84;;;29.06;41.23
61805;BME280;47725;47.912;7.356;2022-08-01T08:28:42;99367.94;;;29.07;41.18
61805;BME280;47725;47.912;7.356;2022-08-01T08:32:42;99366.97;;;29.05;41.54
61805;BME280;47725;47.912;7.356;2022-08-01T08:36:42;99366.41;;;29.06;41.16
61805;BME280;47725;47.912;7.356;2022-08-01T08:40:42;99364.62;;;29.08;41.15
61805;BME280;47725;47.912;7.356;2022-08-01T08:44:42;99361.70;;;29.08;41.34
61805;BME280;47725;47.912;7.356;2022-08-01T08:48:42;99360.08;;;29.07;41.28
61805;BME280;47725;47.912;7.356;2022-08-01T08:52:42;99357.82;;;29.11;41.12
61805;BME280;47725;47.912;7.356;2022-08-01T08:56:43;99354.91;;;29.13;40.99
61805;BME280;47725;47.912;7.356;2022-08-01T09:00:42;99352.46;;;29.12;41.39
61805;BME280;47725;47.912;7.356;2022-08-01T09:04:42;99350.98;;;29.14;41.10
61805;BME280;47725;47.912;7.356;2022-08-01T09:08:42;99350.19;;;29.16;40.95
61805;BME280;47725;47.912;7.356;2022-08-01T09:16:43;99346.62;;;29.18;41.13
61805;BME280;47725;47.912;7.356;2022-08-01T09:20:42;99344.13;;;29.20;40.95
61805;BME280;47725;47.912;7.356;2022-08-01T09:24:42;99342.68;;;29.22;40.99
61805;BME280;47725;47.912;7.356;2022-08-01T09:28:42;99341.60;;;29.21;41.12
61805;BME280;47725;47.912;7.356;2022-08-01T09:32:58;99341.17;;;29.22;41.05
61805;BME280;47725;47.912;7.356;2022-08-01T09:36:43;99341.20;;;29.23;41.01
61805;BME280;47725;47.912;7.356;2022-08-01T09:40:49;99340.78;;;29.22;41.26
61805;BME280;47725;47.912;7.356;2022-08-01T09:44:44;99338.75;;;29.20;41.08
61805;BME280;47725;47.912;7.356;2022-08-01T09:49:01;99337.30;;;29.23;40.85
61805;BME280;47725;47.912;7.356;2022-08-01T09:52:48;99334.92;;;29.27;40.78
61805;BME280;47725;47.912;7.356;2022-08-01T09:56:42;99332.21;;;29.26;41.16
61805;BME280;47725;47.912;7.356;2022-08-01T10:00:42;99330.17;;;29.28;40.81
61805;BME280;47725;47.912;7.356;2022-08-01T10:04:46;99327.92;;;29.31;40.76
61805;BME280;47725;47.912;7.356;2022-08-01T10:08:45;99325.78;;;29.32;41.00
61805;BME280;47725;47.912;7.356;2022-08-01T10:12:42;99322.85;;;29.32;40.81
61805;BME280;47725;47.912;7.356;2022-08-01T10:16:42;99317.90;;;29.36;40.51
61805;BME280;47725;47.912;7.356;2022-08-01T10:20:42;99313.98;;;29.38;40.75
61805;BME280;47725;47.912;7.356;2022-08-01T10:24:43;99309.19;;;29.37;41.03
61805;BME280;47725;47.912;7.356;2022-08-01T10:28:43;99304.50;;;29.36;40.89
61805;BME280;47725;47.912;7.356;2022-08-01T10:32:42;99299.59;;;29.38;40.75
61805;BME280;47725;47.912;7.356;2022-08-01T10:36:43;99294.98;;;29.38;40.89
61805;BME280;47725;47.912;7.356;2022-08-01T10:40:42;99291.78;;;29.36;41.06
61805;BME280;47725;47.912;7.356;2022-08-01T10:44:42;99288.61;;;29.36;40.86
61805;BME280;47725;47.912;7.356;2022-08-01T10:48:56;99285.61;;;29.38;40.77
61805;BME280;47725;47.912;7.356;2022-08-01T10:53:02;99281.87;;;29.35;41.24
61805;BME280;47725;47.912;7.356;2022-08-01T10:56:43;99276.87;;;29.35;40.98
61805;BME280;47725;47.912;7.356;2022-08-01T11:00:42;99272.78;;;29.36;40.93
61805;BME280;47725;47.912;7.356;2022-08-01T11:04:55;99266.85;;;29.36;41.17
61805;BME280;47725;47.912;7.356;2022-08-01T11:08:42;99261.36;;;29.34;41.09
61805;BME280;47725;47.912;7.356;2022-08-01T11:12:42;99256.61;;;29.35;40.98
61805;BME280;47725;47.912;7.356;2022-08-01T11:16:42;99253.14;;;29.37;40.91
61805;BME280;47725;47.912;7.356;2022-08-01T11:20:43;99249.69;;;29.36;41.21
61805;BME280;47725;47.912;7.356;2022-08-01T11:28:43;99242.67;;;29.38;40.93
61805;BME280;47725;47.912;7.356;2022-08-01T11:36:42;99235.29;;;29.37;41.00
61805;BME280;47725;47.912;7.356;2022-08-01T11:40:42;99230.79;;;29.38;40.96
61805;BME280;47725;47.912;7.356;2022-08-01T11:44:49;99226.29;;;29.39;40.99
61805;BME280;47725;47.912;7.356;2022-08-01T11:48:42;99222.01;;;29.37;41.23
61805;BME280;47725;47.912;7.356;2022-08-01T11:52:42;99216.14;;;29.38;41.00
61805;BME280;47725;47.912;7.356;2022-08-01T11:56:42;99211.64;;;29.40;40.94
61805;BME280;47725;47.912;7.356;2022-08-01T12:00:49;99207.98;;;29.40;41.14
61805;BME280;47725;47.912;7.356;2022-08-01T12:04:46;99204.12;;;29.39;40.98
61805;BME280;47725;47.912;7.356;2022-08-01T12:08:42;99201.20;;;29.42;40.88
61805;BME280;47725;47.912;7.356;2022-08-01T12:12:49;99198.14;;;29.44;40.82
61805;BME280;47725;47.912;7.356;2022-08-01T12:16:51;99194.45;;;29.42;41.18
61805;BME280;47725;47.912;7.356;2022-08-01T12:20:43;99192.63;;;29.44;40.85
61805;BME280;47725;47.912;7.356;2022-08-01T12:24:42;99189.70;;;29.46;40.81
61805;BME280;47725;47.912;7.356;2022-08-01T12:28:42;99186.19;;;29.46;41.09
61805;BME280;47725;47.912;7.356;2022-08-01T12:32:43;99183.93;;;29.46;40.89
61805;BME280;47725;47.912;7.356;2022-08-01T12:36:42;99182.14;;;29.48;40.80
61805;BME280;47725;47.912;7.356;2022-08-01T12:40:43;99178.94;;;29.49;40.91
61805;BME280;47725;47.912;7.356;2022-08-01T12:44:43;99175.75;;;29.48;40.97
61805;BME280;47725;47.912;7.356;2022-08-01T12:48:42;99174.11;;;29.50;40.80
61805;BME280;47725;47.912;7.356;2022-08-01T12:52:42;99172.20;;;29.52;40.76
61805;BME280;47725;47.912;7.356;2022-08-01T12:56:42;99171.62;;;29.51;41.05
61805;BME280;47725;47.912;7.356;2022-08-01T13:00:44;99169.44;;;29.52;40.77
61805;BME280;47725;47.912;7.356;2022-08-01T13:04:48;99168.39;;;29.55;40.74
61805;BME280;47725;47.912;7.356;2022-08-01T13:08:42;99168.64;;;29.55;40.97
61805;BME280;47725;47.912;7.356;2022-08-01T13:12:50;99169.71;;;29.54;40.82
61805;BME280;47725;47.912;7.356;2022-08-01T13:16:46;99170.06;;;29.55;40.74
61805;BME280;47725;47.912;7.356;2022-08-01T13:20:42;99167.74;;;29.57;40.69
61805;BME280;47725;47.912;7.356;2022-08-01T13:24:42;99165.88;;;29.55;41.04
61805;BME280;47725;47.912;7.356;2022-08-01T13:28:42;99165.23;;;29.56;40.74
61805;BME280;47725;47.912;7.356;2022-08-01T13:32:42;99164.40;;;29.58;40.72
61805;BME280;47725;47.912;7.356;2022-08-01T13:36:42;99163.57;;;29.58;40.94
61805;BME280;47725;47.912;7.356;2022-08-01T13:40:42;99163.13;;;29.56;40.82
61805;BME280;47725;47.912;7.356;2022-08-01T13:44:42;99161.40;;;29.58;40.72
61805;BME280;47725;47.912;7.356;2022-08-01T13:48:42;99159.82;;;29.59;40.67
61805;BME280;47725;47.912;7.356;2022-08-01T13:52:42;99158.78;;;29.57;41.08
61805;BME280;47725;47.912;7.356;2022-08-01T13:56:42;99159.47;;;29.57;40.78
61805;BME280;47725;47.912;7.356;2022-08-01T14:00:42;99159.97;;;29.58;40.75
61805;BME280;47725;47.912;7.356;2022-08-01T14:04:42;99159.05;;;29.58;41.02
61805;BME280;47725;47.912;7.356;2022-08-01T14:08:42;99156.52;;;29.57;40.84
61805;BME280;47725;47.912;7.356;2022-08-01T14:12:42;99155.11;;;29.58;40.79
61805;BME280;47725;47.912;7.356;2022-08-01T14:16:42;99153.13;;;29.59;40.77
61805;BME280;47725;47.912;7.356;2022-08-01T14:20:42;99151.15;;;29.57;41.12
61805;BME280;47725;47.912;7.356;2022-08-01T14:24:42;99151.17;;;29.58;40.79
61805;BME280;47725;47.912;7.356;2022-08-01T14:28:42;99150.61;;;29.60;40.77
61805;BME280;47725;47.912;7.356;2022-08-01T14:32:42;99151.45;;;29.59;41.02
61805;BME280;47725;47.912;7.356;2022-08-01T14:36:42;99152.44;;;29.57;40.98
61805;BME280;47725;47.912;7.356;2022-08-01T14:40:42;99154.86;;;29.58;40.92
61805;BME280;47725;47.912;7.356;2022-08-01T14:44:42;99156.45;;;29.58;40.89
61805;BME280;47725;47.912;7.356;2022-08-01T14:48:42;99156.59;;;29.57;41.15
61805;BME280;47725;47.912;7.356;2022-08-01T14:52:42;99157.26;;;29.55;41.00
61805;BME280;47725;47.912;7.356;2022-08-01T14:56:42;99156.92;;;29.55;40.94
61805;BME280;47725;47.912;7.356;2022-08-01T15:00:42;99157.84;;;29.56;41.00
61805;BME280;47725;47.912;7.356;2022-08-01T15:04:43;99158.83;;;29.53;41.17
61805;BME280;47725;47.912;7.356;2022-08-01T15:08:42;99160.16;;;29.54;40.96
61805;BME280;47725;47.912;7.356;2022-08-01T15:12:42;99161.02;;;29.56;40.93
61805;BME280;47725;47.912;7.356;2022-08-01T15:16:42;99162.19;;;29.56;41.17
61805;BME280;47725;47.912;7.356;2022-08-01T15:20:42;99162.79;;;29.54;41.05
61805;BME280;47725;47.912;7.356;2022-08-01T15:24:42;99162.02;;;29.56;40.94
61805;BME280;47725;47.912;7.356;2022-08-01T15:28:42;99163.71;;;29.57;40.95
61805;BME280;47725;47.912;7.356;2022-08-01T15:32:42;99164.18;;;29.54;41.34
61805;BME280;47725;47.912;7.356;2022-08-01T15:36:42;99164.62;;;29.55;41.01
61805;BME280;47725;47.912;7.356;2022-08-01T15:40:42;99165.22;;;29.57;40.97
61805;BME280;47725;47.912;7.356;2022-08-01T15:44:42;99166.46;;;29.55;41.40
61805;BME280;47725;47.912;7.356;2022-08-01T15:48:42;99167.70;;;29.54;41.16
61805;BME280;47725;47.912;7.356;2022-08-01T15:52:42;99169.98;;;29.55;41.02
61805;BME280;47725;47.912;7.356;2022-08-01T15:56:42;99172.17;;;29.56;41.21
61805;BME280;47725;47.912;7.356;2022-08-01T16:00:42;99173.24;;;29.55;41.17
61805;BME280;47725;47.912;7.356;2022-08-01T16:04:42;99175.60;;;29.57;41.02
61805;BME280;47725;47.912;7.356;2022-08-01T16:08:42;99177.81;;;29.60;40.99
61805;BME280;47725;47.912;7.356;2022-08-01T16:12:42;99179.79;;;29.57;41.51
61805;BME280;47725;47.912;7.356;2022-08-01T16:16:42;99184.81;;;29.57;41.13
61805;BME280;47725;47.912;7.356;2022-08-01T16:20:42;99189.69;;;29.59;41.10
61805;BME280;47725;47.912;7.356;2022-08-01T16:24:42;99191.97;;;29.59;41.22
61805;BME280;47725;47.912;7.356;2022-08-01T16:28:42;99193.94;;;29.57;41.35
61805;BME280;47725;47.912;7.356;2022-08-01T16:32:42;99195.15;;;29.59;41.12
61805;BME280;47725;47.912;7.356;2022-08-01T16:36:42;99196.76;;;29.61;41.11
61805;BME280;47725;47.912;7.356;2022-08-01T16:40:42;99197.88;;;29.64;40.93
61805;BME280;47725;47.912;7.356;2022-08-01T16:44:42;99198.57;;;29.65;41.06
61805;BME280;47725;47.912;7.356;2022-08-01T16:48:42;99198.41;;;29.65;41.16
61805;BME280;47725;47.912;7.356;2022-08-01T16:52:42;99198.49;;;29.65;41.19
61805;BME280;47725;47.912;7.356;2022-08-01T16:56:42;99198.93;;;29.61;41.61
61805;BME280;47725;47.912;7.356;2022-08-01T17:00:42;99199.69;;;29.61;41.30
61805;BME280;47725;47.912;7.356;2022-08-01T17:04:42;99201.05;;;29.63;41.27
61805;BME280;47725;47.912;7.356;2022-08-01T17:08:42;99201.72;;;29.62;41.51
61805;BME280;47725;47.912;7.356;2022-08-01T17:12:42;99203.20;;;29.60;41.44
61805;BME280;47725;47.912;7.356;2022-08-01T17:16:42;99208.48;;;29.61;41.38
61805;BME280;47725;47.912;7.356;2022-08-01T17:20:42;99215.92;;;29.61;41.50
61805;BME280;47725;47.912;7.356;2022-08-01T17:24:42;99225.43;;;29.58;41.77
61805;BME280;47725;47.912;7.356;2022-08-01T17:28:42;99231.86;;;29.57;41.67
61805;BME280;47725;47.912;7.356;2022-08-01T17:32:42;99238.22;;;29.57;41.64
61805;BME280;47725;47.912;7.356;2022-08-01T17:36:42;99241.66;;;29.56;41.83
61805;BME280;47725;47.912;7.356;2022-08-01T17:40:42;99247.16;;;29.55;41.75
61805;BME280;47725;47.912;7.356;2022-08-01T17:44:42;99251.87;;;29.56;41.68
61805;BME280;47725;47.912;7.356;2022-08-01T17:48:42;99258.48;;;29.57;41.70
61805;BME280;47725;47.912;7.356;2022-08-01T17:52:42;99263.90;;;29.55;42.09
61805;BME280;47725;47.912;7.356;2022-08-01T17:56:42;99270.86;;;29.55;41.87
61805;BME280;47725;47.912;7.356;2022-08-01T18:00:42;99278.14;;;29.55;41.84
61805;BME280;47725;47.912;7.356;2022-08-01T18:04:42;99284.50;;;29.55;42.11
61805;BME280;47725;47.912;7.356;2022-08-01T18:08:42;99289.42;;;29.54;41.96
61805;BME280;47725;47.912;7.356;2022-08-01T18:12:42;99294.06;;;29.56;41.70
61805;BME280;47725;47.912;7.356;2022-08-01T18:16:42;99298.46;;;29.59;41.67
61805;BME280;47725;47.912;7.356;2022-08-01T18:20:42;99302.70;;;29.59;42.01
61805;BME280;47725;47.912;7.356;2022-08-01T18:24:42;99305.98;;;29.60;41.76
61805;BME280;47725;47.912;7.356;2022-08-01T18:28:42;99306.94;;;29.61;41.95
61805;BME280;47725;47.912;7.356;2022-08-01T18:32:42;99308.40;;;29.58;42.23
61805;BME280;47725;47.912;7.356;2022-08-01T18:36:42;99310.46;;;29.55;42.23
61805;BME280;47725;47.912;7.356;2022-08-01T18:40:42;99312.98;;;29.56;42.08
61805;BME280;47725;47.912;7.356;2022-08-01T18:44:42;99315.08;;;29.56;42.10
61805;BME280;47725;47.912;7.356;2022-08-01T18:48:42;99317.91;;;29.55;42.41
61805;BME280;47725;47.912;7.356;2022-08-01T18:52:42;99323.21;;;29.52;42.30
61805;BME280;47725;47.912;7.356;2022-08-01T18:56:42;99329.27;;;29.53;42.22
61805;BME280;47725;47.912;7.356;2022-08-01T19:00:42;99336.46;;;29.54;42.23
61805;BME280;47725;47.912;7.356;2022-08-01T19:04:42;99343.90;;;29.51;42.61
61805;BME280;47725;47.912;7.356;2022-08-01T19:08:42;99351.26;;;29.51;42.34
61805;BME280;47725;47.912;7.356;2022-08-01T19:12:42;99358.87;;;29.52;42.30
61805;BME280;47725;47.912;7.356;2022-08-01T19:16:42;99366.72;;;29.51;42.52
61805;BME280;47725;47.912;7.356;2022-08-01T19:20:42;99374.17;;;29.51;42.37
61805;BME280;47725;47.912;7.356;2022-08-01T19:24:42;99380.31;;;29.52;42.32
61805;BME280;47725;47.912;7.356;2022-08-01T19:28:42;99384.94;;;29.53;42.33
61805;BME280;47725;47.912;7.356;2022-08-01T19:32:42;99388.90;;;29.51;42.72
61805;BME280;47725;47.912;7.356;2022-08-01T19:36:45;99393.63;;;29.51;42.43
61805;BME280;47725;47.912;7.356;2022-08-01T19:40:42;99399.22;;;29.52;42.39
61805;BME280;47725;47.912;7.356;2022-08-01T19:44:42;99403.53;;;29.53;42.60
61805;BME280;47725;47.912;7.356;2022-08-01T19:48:42;99408.09;;;29.56;41.96
61805;BME280;47725;47.912;7.356;2022-08-01T19:52:42;99411.88;;;29.58;42.28
61805;BME280;47725;47.912;7.356;2022-08-01T19:56:42;99415.39;;;29.58;42.47
61805;BME280;47725;47.912;7.356;2022-08-01T20:00:42;99418.14;;;29.57;42.44
61805;BME280;47725;47.912;7.356;2022-08-01T20:04:42;99420.67;;;29.58;42.34
61805;BME280;47725;47.912;7.356;2022-08-01T20:08:42;99422.37;;;29.59;42.29
61805;BME280;47725;47.912;7.356;2022-08-01T20:12:42;99424.19;;;29.57;42.64
61805;BME280;47725;47.912;7.356;2022-08-01T20:16:42;99426.62;;;29.58;42.37
61805;BME280;47725;47.912;7.356;2022-08-01T20:20:42;99428.80;;;29.58;42.50
61805;BME280;47725;47.912;7.356;2022-08-01T20:24:42;99430.78;;;29.56;42.70
61805;BME280;47725;47.912;7.356;2022-08-01T20:28:44;99432.65;;;29.53;42.71
61805;BME280;47725;47.912;7.356;2022-08-01T20:32:42;99435.17;;;29.53;42.67
61805;BME280;47725;47.912;7.356;2022-08-01T20:36:42;99437.77;;;29.54;42.49
61805;BME280;47725;47.912;7.356;2022-08-01T20:40:42;99439.08;;;29.52;42.88
61805;BME280;47725;47.912;7.356;2022-08-01T20:44:42;99439.04;;;29.51;42.61
61805;BME280;47725;47.912;7.356;2022-08-01T20:48:42;99438.90;;;29.52;42.66
61805;BME280;47725;47.912;7.356;2022-08-01T20:52:48;99438.33;;;29.52;42.71
61805;BME280;47725;47.912;7.356;2022-08-01T20:56:45;99437.83;;;29.48;43.07
61805;BME280;47725;47.912;7.356;2022-08-01T21:00:41;99438.95;;;29.49;42.70
61805;BME280;47725;47.912;7.356;2022-08-01T21:04:58;99439.78;;;29.49;42.67
61805;BME280;47725;47.912;7.356;2022-08-01T21:08:43;99439.72;;;29.50;42.58
61805;BME280;47725;47.912;7.356;2022-08-01T21:12:42;99440.54;;;29.48;42.88
61805;BME280;47725;47.912;7.356;2022-08-01T21:16:42;99440.84;;;29.48;42.74
61805;BME280;47725;47.912;7.356;2022-08-01T21:20:42;99442.30;;;29.49;42.58
61805;BME280;47725;47.912;7.356;2022-08-01T21:24:51;99441.71;;;29.49;42.75
61805;BME280;47725;47.912;7.356;2022-08-01T21:28:41;99441.13;;;29.48;42.70
61805;BME280;47725;47.912;7.356;2022-08-01T21:32:42;99440.95;;;29.48;42.73